createdAt,value
2023-05-09T00:03:00.091Z,46.88
2023-05-09T00:06:01.940Z,47.00
2023-05-09T00:09:01.868Z,47.56
2023-05-09T00:12:01.911Z,47.94
2023-05-09T00:15:02.981Z,47.82
2023-05-09T00:18:02.957Z,47.66
2023-05-09T00:21:02.910Z,47.82
2023-05-09T00:24:02.879Z,48.05
2023-05-09T00:27:02.869Z,47.99
2023-05-09T00:30:02.921Z,47.88
2023-05-09T00:33:03.959Z,48.04
2023-05-09T00:36:03.897Z,48.34
2023-05-09T00:39:04.204Z,48.29
2023-05-09T00:42:03.880Z,48.10
2023-05-09T00:45:03.988Z,48.09
2023-05-09T00:48:03.978Z,47.86
2023-05-09T00:51:03.971Z,47.72
2023-05-09T00:54:03.939Z,47.73
2023-05-09T00:57:03.962Z,47.54
2023-05-09T01:00:03.983Z,47.45
2023-05-09T01:03:06.116Z,47.31
2023-05-09T01:06:29.949Z,47.19
2023-05-09T01:09:35.007Z,47.17
2023-05-09T01:12:48.027Z,47.04
2023-05-09T01:16:02.040Z,46.91
2023-05-09T01:19:04.007Z,46.75
2023-05-09T01:22:03.981Z,46.86
2023-05-09T01:25:16.230Z,46.77
2023-05-09T01:28:36.191Z,46.77
2023-05-09T01:31:36.178Z,46.79
2023-05-09T01:34:36.004Z,46.91
2023-05-09T01:37:37.014Z,46.85
2023-05-09T01:40:37.056Z,46.73
2023-05-09T01:43:38.073Z,46.51
2023-05-09T01:46:38.011Z,46.41
2023-05-09T01:49:38.049Z,46.11
2023-05-09T01:52:38.113Z,46.00
2023-05-09T01:55:39.068Z,46.12
2023-05-09T01:58:39.066Z,45.80
2023-05-09T02:01:39.055Z,45.54
2023-05-09T02:04:39.066Z,45.45
2023-05-09T02:07:39.071Z,45.58
2023-05-09T02:10:40.089Z,45.36
2023-05-09T02:13:41.075Z,45.24
2023-05-09T02:16:41.197Z,45.16
2023-05-09T02:19:41.108Z,44.94
2023-05-09T02:22:41.125Z,45.06
2023-05-09T02:25:41.109Z,45.22
2023-05-09T02:28:41.123Z,45.18
2023-05-09T02:31:41.385Z,45.10
2023-05-09T02:34:42.121Z,45.02
2023-05-09T02:37:42.134Z,44.85
2023-05-09T02:40:43.161Z,44.99
2023-05-09T02:43:45.353Z,44.80
2023-05-09T02:46:46.184Z,44.83
2023-05-09T02:49:46.182Z,44.88
2023-05-09T02:52:47.113Z,44.86
2023-05-09T02:55:47.321Z,44.77
2023-05-09T02:58:40.251Z,45.04
2023-05-09T03:01:43.572Z,45.13
2023-05-09T03:04:44.354Z,45.45
2023-05-09T03:07:45.219Z,45.50
2023-05-09T03:10:45.169Z,45.79
2023-05-09T03:13:45.190Z,45.77
2023-05-09T03:16:47.209Z,45.67
2023-05-09T03:20:03.225Z,45.73
2023-05-09T03:23:04.244Z,45.72
2023-05-09T03:26:06.460Z,45.96
2023-05-09T03:29:07.233Z,45.89
2023-05-09T03:32:07.219Z,45.80
2023-05-09T03:35:07.317Z,45.75
2023-05-09T03:38:07.299Z,45.76
2023-05-09T03:41:07.273Z,46.06
2023-05-09T03:44:07.334Z,46.01
2023-05-09T03:47:07.384Z,46.12
2023-05-09T03:50:07.338Z,46.48
2023-05-09T03:53:07.286Z,46.34
2023-05-09T03:56:08.260Z,46.13
2023-05-09T03:59:12.341Z,46.19
2023-05-09T04:02:12.381Z,46.34
2023-05-09T04:05:12.600Z,46.23
2023-05-09T04:08:14.283Z,46.46
2023-05-09T04:11:14.400Z,46.58
2023-05-09T04:14:14.425Z,46.44
2023-05-09T04:17:21.288Z,46.76
2023-05-09T04:20:21.348Z,46.70
2023-05-09T04:23:21.354Z,46.70
2023-05-09T04:26:24.300Z,46.29
2023-05-09T04:29:24.330Z,46.08
2023-05-09T04:32:27.366Z,45.86
2023-05-09T04:35:27.334Z,45.46
2023-05-09T04:38:27.306Z,45.41
2023-05-09T04:41:27.361Z,45.33
2023-05-09T04:44:27.715Z,44.92
2023-05-09T04:47:28.401Z,44.67
2023-05-09T04:50:28.349Z,44.81
2023-05-09T04:53:30.466Z,44.02
2023-05-09T04:56:30.440Z,43.93
2023-05-09T04:59:30.473Z,43.58
2023-05-09T05:02:31.394Z,43.28
2023-05-09T05:05:32.949Z,43.21
2023-05-09T05:08:35.394Z,42.79
2023-05-09T05:11:35.383Z,42.34
2023-05-09T05:14:35.466Z,42.13
2023-05-09T05:17:37.408Z,42.08
2023-05-09T05:20:37.399Z,41.66
2023-05-09T05:23:37.492Z,41.51
2023-05-09T05:26:38.561Z,41.72
2023-05-09T05:29:38.414Z,41.21
2023-05-09T05:32:38.504Z,40.84
2023-05-09T05:35:39.439Z,40.35
2023-05-09T05:38:39.494Z,40.00
2023-05-09T05:41:39.539Z,39.15
2023-05-09T05:44:39.819Z,39.45
2023-05-09T05:47:40.509Z,39.04
2023-05-09T05:50:42.618Z,38.63
2023-05-09T05:53:43.428Z,37.78
2023-05-09T05:56:43.513Z,37.93
2023-05-09T05:59:43.453Z,38.29
2023-05-09T06:02:43.768Z,38.09
2023-05-09T06:05:49.528Z,37.67
2023-05-09T06:08:49.426Z,37.15
2023-05-09T06:11:52.456Z,36.98
2023-05-09T06:14:53.563Z,36.72
2023-05-09T06:17:54.545Z,36.72
2023-05-09T06:20:56.616Z,36.71
2023-05-09T06:26:59.891Z,36.06
2023-05-09T06:30:04.182Z,35.39
2023-05-09T06:33:08.549Z,34.53
2023-05-09T06:36:08.531Z,33.77
2023-05-09T06:39:08.669Z,33.03
2023-05-09T06:42:09.516Z,31.86
2023-05-09T06:45:10.575Z,31.12
2023-05-09T06:48:11.491Z,30.40
2023-05-09T06:51:11.489Z,29.22
2023-05-09T06:54:11.554Z,28.09
2023-05-09T06:57:12.572Z,28.01
2023-05-09T07:00:12.518Z,28.08
2023-05-09T07:03:16.475Z,27.39
2023-05-09T07:06:16.645Z,26.82
2023-05-09T07:09:16.576Z,27.34
2023-05-09T07:12:16.567Z,27.17
2023-05-09T07:15:28.766Z,26.34
2023-05-09T07:18:38.587Z,26.57
2023-05-09T07:21:40.595Z,26.81
2023-05-09T07:24:40.747Z,25.88
2023-05-09T07:27:40.569Z,25.39
2023-05-09T07:30:41.572Z,25.45
2023-05-09T07:33:41.691Z,25.17
2023-05-09T07:36:43.610Z,24.50
2023-05-09T07:39:45.885Z,24.39
2023-05-09T07:42:46.812Z,23.76
2023-05-09T07:45:46.872Z,22.93
2023-05-09T07:48:46.588Z,23.09
2023-05-09T07:51:47.631Z,22.28
2023-05-09T07:54:47.617Z,21.82
2023-05-09T07:57:47.845Z,21.93
2023-05-09T08:00:50.194Z,22.35
2023-05-09T08:03:51.674Z,22.08
2023-05-09T08:06:52.734Z,22.35
2023-05-09T08:09:55.689Z,22.06
2023-05-09T08:12:56.670Z,22.30
2023-05-09T08:15:56.765Z,22.30
2023-05-09T08:18:58.668Z,22.36
2023-05-09T08:22:12.818Z,21.61
2023-05-09T08:25:24.729Z,21.17
2023-05-09T08:28:27.702Z,21.43
2023-05-09T08:31:28.681Z,21.45
2023-05-09T08:34:29.754Z,21.41
2023-05-09T08:37:30.762Z,21.50
2023-05-09T08:40:32.573Z,21.66
2023-05-09T08:43:37.896Z,22.20
2023-05-09T08:46:50.311Z,21.63
2023-05-09T08:49:52.785Z,20.89
2023-05-09T08:52:53.743Z,20.09
2023-05-09T08:55:53.963Z,19.22
2023-05-09T08:58:53.835Z,19.62
2023-05-09T09:01:53.851Z,19.99
2023-05-09T09:04:56.857Z,20.34
2023-05-09T09:08:01.815Z,20.65
2023-05-09T09:11:02.790Z,20.89
2023-05-09T09:14:05.775Z,21.36
2023-05-09T09:17:07.932Z,21.28
2023-05-09T09:20:17.015Z,20.90
2023-05-09T09:23:17.738Z,20.09
2023-05-09T09:26:17.915Z,19.50
2023-05-09T09:29:19.955Z,19.27
2023-05-09T09:32:22.193Z,18.89
2023-05-09T09:35:23.836Z,19.07
2023-05-09T09:38:31.049Z,18.68
2023-05-09T09:41:35.258Z,18.82
2023-05-09T09:44:36.944Z,18.56
2023-05-09T09:47:44.901Z,18.54
2023-05-09T09:50:47.990Z,18.33
2023-05-09T09:53:56.940Z,18.95
2023-05-09T09:57:49.729Z,19.29
2023-05-09T10:00:32.363Z,19.68
2023-05-09T10:03:34.871Z,19.73
2023-05-09T10:06:36.129Z,19.98
2023-05-09T10:09:36.918Z,19.95
2023-05-09T10:12:40.111Z,20.05
2023-05-09T10:15:52.437Z,19.95
2023-05-09T10:18:55.364Z,20.07
2023-05-09T10:22:04.842Z,19.99
2023-05-09T10:25:16.157Z,19.33
2023-05-09T10:28:17.020Z,18.75
2023-05-09T10:31:18.986Z,18.70
2023-05-09T10:34:18.888Z,18.82
2023-05-09T10:37:18.989Z,18.98
2023-05-09T10:40:22.071Z,19.34
2023-05-09T10:43:27.218Z,19.66
2023-05-09T10:46:29.975Z,20.15
2023-05-09T10:49:31.202Z,20.71
2023-05-09T10:52:34.126Z,20.82
2023-05-09T10:55:38.316Z,21.05
2023-05-09T10:58:42.223Z,21.35
2023-05-09T11:01:43.026Z,21.25
2023-05-09T11:04:43.199Z,21.23
2023-05-09T11:07:53.085Z,21.34
2023-05-09T11:10:57.159Z,21.45
2023-05-09T11:13:59.829Z,21.51
2023-05-09T11:17:12.014Z,21.88
2023-05-09T11:20:18.060Z,22.17
2023-05-09T11:23:22.989Z,21.61
2023-05-09T11:26:32.085Z,21.62
2023-05-09T11:29:34.616Z,21.68
2023-05-09T11:32:40.160Z,21.81
2023-05-09T11:35:48.053Z,22.01
2023-05-09T11:38:56.149Z,22.31
2023-05-09T11:41:59.004Z,22.46
2023-05-09T11:45:02.640Z,22.43
2023-05-09T11:48:07.208Z,22.32
2023-05-09T11:51:07.053Z,22.31
2023-05-09T11:54:07.264Z,22.38
2023-05-09T11:57:08.172Z,22.50
2023-05-09T12:00:08.083Z,22.31
2023-05-09T12:03:08.209Z,22.49
2023-05-09T12:06:08.259Z,22.39
2023-05-09T12:09:09.074Z,22.44
2023-05-09T12:12:09.036Z,22.61
2023-05-09T12:15:09.063Z,23.08
2023-05-09T12:18:15.236Z,22.85
2023-05-09T12:21:15.254Z,22.66
2023-05-09T12:24:15.101Z,22.80
2023-05-09T12:31:33.247Z,23.10
2023-05-09T12:46:22.261Z,22.53
2023-05-09T12:49:32.114Z,21.85
2023-05-09T12:56:25.052Z,21.08
2023-05-09T12:59:45.240Z,21.50
2023-05-09T13:10:10.622Z,21.65
2023-05-09T13:13:12.186Z,21.83
2023-05-09T13:16:14.209Z,22.20
2023-05-09T13:19:16.252Z,22.66
2023-05-09T13:22:18.218Z,22.73
2023-05-09T13:25:18.181Z,23.33
2023-05-09T13:28:18.324Z,23.93
2023-05-09T13:31:20.323Z,24.13
2023-05-09T13:34:30.327Z,24.15
2023-05-09T13:37:37.996Z,24.58
2023-05-09T13:40:44.418Z,24.84
2023-05-09T13:43:49.489Z,24.80
2023-05-09T13:46:57.663Z,24.49
2023-05-09T13:50:06.993Z,24.41
2023-05-09T13:53:27.341Z,24.49
2023-05-09T13:56:27.404Z,24.70
2023-05-09T13:59:27.269Z,24.65
2023-05-09T14:02:27.274Z,24.64
2023-05-09T14:05:27.273Z,24.80
2023-05-09T14:08:27.357Z,24.68
2023-05-09T14:11:28.371Z,25.06
2023-05-09T14:14:29.455Z,25.23
2023-05-09T14:17:29.365Z,25.39
2023-05-09T14:20:30.333Z,25.38
2023-05-09T14:23:30.407Z,25.51
2023-05-09T14:26:32.340Z,25.67
2023-05-09T14:29:32.385Z,26.05
2023-05-09T14:32:32.532Z,26.21
2023-05-09T14:35:32.441Z,26.23
2023-05-09T14:38:33.436Z,26.21
2023-05-09T14:41:33.382Z,26.28
2023-05-09T14:44:33.599Z,26.57
2023-05-09T14:47:33.364Z,26.91
2023-05-09T14:50:34.368Z,27.41
2023-05-09T14:53:34.495Z,27.30
2023-05-09T14:56:34.363Z,27.45
2023-05-09T14:59:36.692Z,27.74
2023-05-09T15:02:37.437Z,27.66
2023-05-09T15:05:37.448Z,27.68
2023-05-09T15:08:38.392Z,27.75
2023-05-09T15:11:47.637Z,27.57
2023-05-09T15:14:49.356Z,27.14
2023-05-09T15:17:50.410Z,26.78
2023-05-09T15:20:50.416Z,26.81
2023-05-09T15:23:50.462Z,27.09
2023-05-09T15:26:50.648Z,27.34
2023-05-09T15:29:50.771Z,27.04
2023-05-09T15:32:52.465Z,27.32
2023-05-09T15:35:54.429Z,27.32
2023-05-09T15:38:55.398Z,27.27
2023-05-09T15:41:56.555Z,27.19
2023-05-09T15:44:56.533Z,27.07
2023-05-09T15:47:57.542Z,27.25
2023-05-09T15:50:58.543Z,27.30
2023-05-09T15:53:58.432Z,27.55
2023-05-09T15:56:58.484Z,27.75
2023-05-09T16:00:01.536Z,27.86
2023-05-09T16:03:06.509Z,27.25
2023-05-09T16:06:06.492Z,27.35
2023-05-09T16:09:08.571Z,27.79
2023-05-09T16:12:08.497Z,28.01
2023-05-09T16:15:08.489Z,28.10
2023-05-09T16:18:08.619Z,28.40
2023-05-09T16:21:08.576Z,28.55
2023-05-09T16:24:09.520Z,28.60
2023-05-09T16:27:09.533Z,28.51
2023-05-09T16:30:09.814Z,28.77
2023-05-09T16:33:09.580Z,29.02
2023-05-09T16:36:09.518Z,29.10
2023-05-09T16:39:09.566Z,29.33
2023-05-09T16:42:11.680Z,29.37
2023-05-09T16:45:11.503Z,29.26
2023-05-09T16:48:11.600Z,29.30
2023-05-09T16:51:11.565Z,29.44
2023-05-09T16:54:11.548Z,29.67
2023-05-09T16:57:11.584Z,29.78
2023-05-09T17:00:13.776Z,30.06
2023-05-09T17:03:14.550Z,30.29
2023-05-09T17:06:14.610Z,30.43
2023-05-09T17:09:14.707Z,30.70
2023-05-09T17:12:16.546Z,30.88
2023-05-09T17:15:17.630Z,31.09
2023-05-09T17:18:29.141Z,31.43
2023-05-09T17:21:43.061Z,31.65
2023-05-09T17:24:45.032Z,31.92
2023-05-09T17:27:47.771Z,31.93
2023-05-09T17:30:48.676Z,32.19
2023-05-09T17:33:49.651Z,32.41
2023-05-09T17:36:50.755Z,32.45
2023-05-09T17:39:50.811Z,32.73
2023-05-09T17:42:52.028Z,32.94
2023-05-09T17:45:52.764Z,33.24
2023-05-09T17:48:53.678Z,33.43
2023-05-09T17:51:53.719Z,33.65
2023-05-09T17:54:53.695Z,33.87
2023-05-09T17:57:54.729Z,34.19
2023-05-09T18:00:54.665Z,34.40
2023-05-09T18:03:55.898Z,34.45
2023-05-09T18:06:56.837Z,34.79
2023-05-09T18:09:59.712Z,34.87
2023-05-09T18:13:04.537Z,35.05
2023-05-09T18:16:05.911Z,35.20
2023-05-09T18:19:05.728Z,35.48
2023-05-09T18:22:06.637Z,35.87
2023-05-09T18:25:07.052Z,35.65
2023-05-09T18:28:06.783Z,35.75
2023-05-09T18:31:12.752Z,35.97
2023-05-09T18:34:13.803Z,36.22
2023-05-09T18:37:15.766Z,36.55
2023-05-09T18:40:20.697Z,36.74
2023-05-09T18:43:21.773Z,37.08
2023-05-09T18:46:26.750Z,37.21
2023-05-09T18:49:30.821Z,37.36
2023-05-09T18:52:30.811Z,37.35
2023-05-09T18:55:30.740Z,37.91
2023-05-09T18:58:32.398Z,37.93
2023-05-09T19:01:35.755Z,37.74
2023-05-09T19:04:36.929Z,37.83
2023-05-09T19:07:37.859Z,37.64
2023-05-09T19:10:37.826Z,37.45
2023-05-09T19:13:42.871Z,37.34
2023-05-09T19:16:42.769Z,37.33
2023-05-09T19:19:42.907Z,37.28
2023-05-09T19:22:35.889Z,37.56
2023-05-09T19:25:39.802Z,37.83
2023-05-09T19:28:40.833Z,37.81
2023-05-09T19:31:40.925Z,37.80
2023-05-09T19:34:40.778Z,37.86
2023-05-09T19:37:40.861Z,37.71
2023-05-09T19:40:44.222Z,37.91
2023-05-09T19:43:43.910Z,38.04
2023-05-09T19:46:51.207Z,38.09
2023-05-09T19:49:52.884Z,38.40
2023-05-09T19:52:53.884Z,38.33
2023-05-09T19:55:57.239Z,38.36
2023-05-09T19:58:57.138Z,38.29
2023-05-09T20:01:58.207Z,38.43
2023-05-09T20:05:00.059Z,38.43
2023-05-09T20:08:01.967Z,38.36
2023-05-09T20:11:01.966Z,38.44
2023-05-09T20:14:04.140Z,38.43
2023-05-09T20:17:04.937Z,38.49
2023-05-09T20:20:04.972Z,38.53
2023-05-09T20:23:04.941Z,38.44
2023-05-09T20:26:04.960Z,38.79
2023-05-09T20:29:06.919Z,39.07
2023-05-09T20:32:07.012Z,39.25
2023-05-09T20:35:06.925Z,39.96
2023-05-09T20:38:10.902Z,39.88
2023-05-09T20:41:10.900Z,39.84
2023-05-09T20:44:10.908Z,39.96
2023-05-09T20:47:11.968Z,40.17
2023-05-09T20:50:12.018Z,40.23
2023-05-09T20:53:12.184Z,40.18
2023-05-09T20:56:11.928Z,40.18
2023-05-09T20:59:11.970Z,40.04
2023-05-09T21:02:13.060Z,40.13
2023-05-09T21:05:12.933Z,39.96
2023-05-09T21:08:14.122Z,40.01
2023-05-09T21:11:16.019Z,40.15
2023-05-09T21:14:18.080Z,40.09
2023-05-09T21:17:22.018Z,39.94
2023-05-09T21:20:23.114Z,39.98
2023-05-09T21:23:27.021Z,40.06
2023-05-09T21:26:30.971Z,40.20
2023-05-09T21:29:31.062Z,40.18
2023-05-09T21:32:34.061Z,40.43
2023-05-09T21:35:34.007Z,40.84
2023-05-09T21:38:35.080Z,42.02
2023-05-09T21:41:35.019Z,42.17
2023-05-09T21:44:36.999Z,43.46
2023-05-09T21:47:37.130Z,42.88
2023-05-09T21:50:40.223Z,42.42
2023-05-09T21:53:45.070Z,42.57
2023-05-09T21:56:46.015Z,43.44
2023-05-09T21:59:46.060Z,43.27
2023-05-09T22:02:51.181Z,42.75
2023-05-09T22:05:52.137Z,42.76
2023-05-09T22:08:54.426Z,42.79
2023-05-09T22:11:55.030Z,42.85
2023-05-09T22:14:57.140Z,43.40
2023-05-09T22:17:58.123Z,44.07
2023-05-09T22:20:59.109Z,44.11
2023-05-09T22:23:59.093Z,44.77
2023-05-09T22:27:01.136Z,45.10
2023-05-09T22:30:01.070Z,45.53
2023-05-09T22:33:06.305Z,45.77
2023-05-09T22:36:08.086Z,46.11
2023-05-09T22:39:09.109Z,45.79
2023-05-09T22:42:10.270Z,46.00
2023-05-09T22:45:10.085Z,45.99
2023-05-09T22:48:11.294Z,45.86
2023-05-09T22:51:13.369Z,46.09
2023-05-09T22:54:13.217Z,47.10
2023-05-09T22:57:13.144Z,47.09
2023-05-09T23:00:16.134Z,47.74
2023-05-09T23:03:16.257Z,48.16
2023-05-09T23:06:16.193Z,48.27
2023-05-09T23:09:18.228Z,48.87
2023-05-09T23:12:19.494Z,49.72
2023-05-09T23:15:20.206Z,49.71
2023-05-09T23:18:20.245Z,50.48
2023-05-09T23:21:27.346Z,50.67
2023-05-09T23:24:27.208Z,50.87
2023-05-09T23:27:27.411Z,51.21
2023-05-09T23:30:27.255Z,51.24
2023-05-09T23:33:28.260Z,51.04
2023-05-09T23:36:28.199Z,51.05
2023-05-09T23:39:28.251Z,51.36
2023-05-09T23:42:28.214Z,50.86
2023-05-09T23:45:28.251Z,50.67
2023-05-09T23:48:28.263Z,50.65
2023-05-09T23:51:28.222Z,50.77
2023-05-09T23:54:28.205Z,50.59
2023-05-09T23:57:29.234Z,51.12
